Аэропорт: Алыкель. Норильск

ICAO: UOOO

METAR:
2019-09-21 16:00:00
UOOO 211600Z 24011MPS 7000 -SHRA BKN005CB 03/02 Q0988 R19/29//50 NOSIG RMK QFE725/0967
METAR:
2019-09-21 13:46:00
TAF UOOO 211346Z 2115/2215 24011G16MPS 1900 SHRA BR BKN004CB TEMPO 2115/2215 0500 +SHRASN FG VV002 BECMG 2120/2124 25015G20MPS